createdAt,value
2018-12-29T00:00:41.899Z,57.14
2018-12-29T00:01:41.899Z,56.76
2018-12-29T00:02:41.907Z,56.76
2018-12-29T00:03:41.916Z,56.76
2018-12-29T00:04:41.922Z,56.57
2018-12-29T00:05:41.935Z,56.95
2018-12-29T00:06:41.938Z,56.76
2018-12-29T00:07:41.951Z,56.67
2018-12-29T00:08:41.958Z,56.57
2018-12-29T00:09:41.964Z,56.95
2018-12-29T00:10:41.972Z,57.33
2018-12-29T00:11:41.980Z,57.42
2018-12-29T00:12:41.988Z,56.67
2018-12-29T00:13:41.997Z,56.85
2018-12-29T00:14:42.003Z,56.67
2018-12-29T00:15:42.014Z,56.95
2018-12-29T00:16:42.020Z,57.42
2018-12-29T00:17:42.028Z,57.61
2018-12-29T00:18:42.035Z,57.33
2018-12-29T00:19:42.046Z,57.61
2018-12-29T00:20:42.056Z,57.90
2018-12-29T00:21:42.061Z,57.80
2018-12-29T00:22:42.068Z,57.90
2018-12-29T00:23:42.076Z,57.71
2018-12-29T00:24:42.083Z,58.18
2018-12-29T00:25:42.093Z,57.99
2018-12-29T00:26:42.100Z,58.09
2018-12-29T00:27:42.110Z,58.65
2018-12-29T00:28:42.116Z,58.75
2018-12-29T00:29:42.123Z,59.03
2018-12-29T00:30:42.132Z,59.03
2018-12-29T00:31:42.142Z,59.03
2018-12-29T00:32:42.148Z,58.94
2018-12-29T00:33:42.158Z,58.84
2018-12-29T00:34:42.162Z,58.75
2018-12-29T00:35:42.174Z,59.41
2018-12-29T00:36:42.185Z,58.75
2018-12-29T00:37:42.191Z,59.31
2018-12-29T00:38:42.197Z,59.41
2018-12-29T00:39:42.207Z,58.94
2018-12-29T00:40:42.217Z,58.94
2018-12-29T00:41:42.224Z,58.94
2018-12-29T00:42:42.228Z,59.03
2018-12-29T00:43:42.235Z,59.12
2018-12-29T00:44:42.243Z,59.12
2018-12-29T00:45:42.252Z,59.31
2018-12-29T00:46:42.332Z,59.22
2018-12-29T00:47:42.268Z,58.84
2018-12-29T00:48:42.274Z,59.03
2018-12-29T00:49:42.283Z,58.56
2018-12-29T00:50:42.291Z,58.47
2018-12-29T00:51:42.300Z,59.12
2018-12-29T00:52:42.311Z,58.94
2018-12-29T00:53:42.316Z,58.94
2018-12-29T00:54:42.323Z,59.22
2018-12-29T00:55:42.330Z,59.22
2018-12-29T00:56:42.338Z,59.22
2018-12-29T00:57:42.348Z,58.94
2018-12-29T00:58:42.354Z,58.28
2018-12-29T00:59:42.362Z,58.65
2018-12-29T01:00:42.368Z,57.99
2018-12-29T01:01:42.377Z,58.09
2018-12-29T01:02:42.385Z,57.90
2018-12-29T01:03:42.395Z,58.28
2018-12-29T01:04:42.402Z,57.99
2018-12-29T01:05:42.412Z,57.99
2018-12-29T01:06:42.416Z,58.18
2018-12-29T01:07:42.427Z,57.99
2018-12-29T01:08:42.433Z,58.18
2018-12-29T01:09:42.457Z,58.18
2018-12-29T01:10:42.446Z,58.09
2018-12-29T01:11:42.456Z,57.71
2018-12-29T01:12:42.464Z,57.52
2018-12-29T01:13:42.472Z,57.42
2018-12-29T01:14:42.479Z,57.71
2018-12-29T01:15:42.523Z,57.61
2018-12-29T01:16:42.495Z,58.28
2018-12-29T01:17:42.503Z,57.99
2018-12-29T01:18:42.512Z,57.71
2018-12-29T01:19:42.515Z,57.52
2018-12-29T01:20:42.527Z,57.80
2018-12-29T01:21:42.533Z,57.52
2018-12-29T01:22:42.541Z,57.04
2018-12-29T01:23:42.550Z,56.67
2018-12-29T01:24:42.557Z,56.57
2018-12-29T01:25:42.567Z,57.52
2018-12-29T01:26:42.571Z,57.33
2018-12-29T01:27:42.578Z,57.52
2018-12-29T01:28:42.588Z,57.61
2018-12-29T01:29:42.595Z,57.42
2018-12-29T01:30:42.602Z,57.42
2018-12-29T01:31:42.611Z,57.42
2018-12-29T01:32:42.617Z,57.42
2018-12-29T01:33:42.627Z,57.14
2018-12-29T01:34:42.636Z,57.42
2018-12-29T01:35:42.642Z,57.33
2018-12-29T01:36:42.651Z,58.09
2018-12-29T01:37:42.658Z,57.42
2018-12-29T01:38:42.664Z,57.71
2018-12-29T01:39:42.672Z,57.42
2018-12-29T01:40:42.683Z,57.52
2018-12-29T01:41:42.688Z,57.42
2018-12-29T01:42:42.695Z,57.42
2018-12-29T01:43:42.703Z,57.04
2018-12-29T01:44:42.712Z,57.14
2018-12-29T01:45:42.718Z,57.42
2018-12-29T01:46:42.728Z,56.85
2018-12-29T01:47:42.735Z,56.95
2018-12-29T01:48:42.743Z,57.04
2018-12-29T01:49:42.754Z,57.42
2018-12-29T01:50:42.756Z,57.33
2018-12-29T01:51:42.763Z,57.52
2018-12-29T01:52:42.773Z,57.42
2018-12-29T01:53:42.779Z,58.09
2018-12-29T01:54:42.787Z,58.09
2018-12-29T01:55:42.795Z,58.28
2018-12-29T01:56:42.804Z,58.09
2018-12-29T01:57:42.812Z,57.71
2018-12-29T01:58:42.819Z,57.52
2018-12-29T01:59:42.826Z,57.42
2018-12-29T02:00:42.836Z,57.80
2018-12-29T02:01:42.845Z,58.09
2018-12-29T02:02:42.849Z,57.99
2018-12-29T02:03:42.859Z,57.99
2018-12-29T02:04:42.864Z,58.09
2018-12-29T02:05:42.872Z,57.90
2018-12-29T02:06:42.878Z,58.65
2018-12-29T02:07:42.888Z,58.75
2018-12-29T02:08:42.900Z,59.12
2018-12-29T02:09:42.903Z,59.41
2018-12-29T02:10:42.910Z,59.22
2018-12-29T02:11:42.916Z,58.94
2018-12-29T02:12:42.926Z,59.31
2018-12-29T02:13:42.934Z,59.12
2018-12-29T02:14:42.943Z,59.31
2018-12-29T02:15:42.948Z,59.22
2018-12-29T02:16:42.959Z,59.31
2018-12-29T02:17:42.963Z,59.41
2018-12-29T02:18:42.972Z,59.50
2018-12-29T02:19:42.978Z,58.75
2018-12-29T02:20:42.985Z,58.09
2018-12-29T02:21:42.994Z,58.09
2018-12-29T02:22:43.002Z,58.18
2018-12-29T02:23:43.013Z,58.47
2018-12-29T02:24:43.016Z,58.75
2018-12-29T02:25:43.022Z,58.94
2018-12-29T02:26:43.030Z,59.03
2018-12-29T02:27:43.039Z,59.60
2018-12-29T02:28:43.047Z,58.94
2018-12-29T02:29:43.054Z,59.03
2018-12-29T02:30:43.062Z,58.65
2018-12-29T02:31:43.068Z,58.47
2018-12-29T02:32:43.078Z,58.65
2018-12-29T02:33:43.082Z,58.65
2018-12-29T02:34:43.092Z,58.65
2018-12-29T02:35:43.100Z,58.75
2018-12-29T02:36:43.108Z,57.90
2018-12-29T02:37:43.114Z,58.09
2018-12-29T02:38:43.121Z,57.80
2018-12-29T02:39:43.134Z,58.65
2018-12-29T02:40:43.139Z,57.99
2018-12-29T02:41:43.149Z,57.61
2018-12-29T02:42:43.153Z,58.18
2018-12-29T02:43:43.160Z,57.99
2018-12-29T02:44:43.167Z,57.71
2018-12-29T02:45:43.192Z,57.99
2018-12-29T02:46:43.187Z,57.80
2018-12-29T02:47:43.191Z,57.90
2018-12-29T02:48:43.197Z,58.28
2018-12-29T02:49:43.204Z,58.47
2018-12-29T02:50:43.210Z,58.84
2018-12-29T02:51:43.224Z,58.65
2018-12-29T02:52:43.223Z,58.28
2018-12-29T02:53:43.232Z,58.37
2018-12-29T02:54:43.245Z,58.75
2018-12-29T02:55:43.250Z,58.28
2018-12-29T02:56:43.255Z,58.65
2018-12-29T02:57:43.263Z,57.90
2018-12-29T02:58:43.270Z,57.80
2018-12-29T02:59:43.275Z,57.71
2018-12-29T03:00:43.283Z,57.71
2018-12-29T03:01:43.294Z,57.99
2018-12-29T03:02:43.300Z,57.23
2018-12-29T03:03:43.307Z,56.76
2018-12-29T03:04:43.313Z,56.57
2018-12-29T03:05:43.324Z,56.67
2018-12-29T03:06:43.332Z,57.04
2018-12-29T03:07:43.334Z,57.42
2018-12-29T03:08:43.343Z,57.33
2018-12-29T03:09:43.352Z,57.90
2018-12-29T03:10:43.357Z,57.80
2018-12-29T03:11:43.367Z,58.75
2018-12-29T03:12:43.374Z,59.03
2018-12-29T03:13:43.381Z,58.94
2018-12-29T03:14:43.393Z,58.28
2018-12-29T03:15:43.397Z,57.80
2018-12-29T03:16:43.405Z,58.47
2018-12-29T03:17:43.410Z,59.50
2018-12-29T03:18:43.417Z,59.31
2018-12-29T03:19:43.424Z,59.22
2018-12-29T03:20:43.448Z,59.22
2018-12-29T03:21:43.440Z,59.60
2018-12-29T03:22:43.447Z,59.98
2018-12-29T03:23:43.454Z,60.26
2018-12-29T03:24:43.464Z,60.64
2018-12-29T03:25:43.471Z,60.61
2018-12-29T03:26:43.475Z,60.45
2018-12-29T03:27:43.485Z,60.14
2018-12-29T03:28:43.495Z,60.42
2018-12-29T03:29:43.500Z,60.70
2018-12-29T03:30:43.510Z,60.55
2018-12-29T03:31:43.516Z,60.70
2018-12-29T03:32:43.523Z,60.61
2018-12-29T03:33:43.529Z,60.52
2018-12-29T03:34:43.537Z,60.61
2018-12-29T03:35:43.544Z,60.61
2018-12-29T03:36:43.552Z,60.99
2018-12-29T03:37:43.558Z,60.89
2018-12-29T03:38:43.564Z,61.36
2018-12-29T03:39:43.571Z,61.08
2018-12-29T03:40:43.582Z,61.18
2018-12-29T03:41:43.591Z,61.36
2018-12-29T03:42:43.602Z,61.46
2018-12-29T03:43:43.602Z,61.27
2018-12-29T03:44:43.611Z,61.36
2018-12-29T03:45:49.081Z,60.89
2018-12-29T03:46:43.621Z,60.52
2018-12-29T03:47:43.633Z,60.52
2018-12-29T03:48:43.637Z,60.42
2018-12-29T03:49:43.647Z,59.76
2018-12-29T03:50:43.652Z,60.14
2018-12-29T03:51:43.662Z,60.14
2018-12-29T03:52:43.666Z,60.04
2018-12-29T03:53:43.677Z,59.66
2018-12-29T03:54:43.681Z,59.28
2018-12-29T03:55:43.688Z,59.09
2018-12-29T03:56:43.697Z,59.38
2018-12-29T03:57:43.702Z,59.19
2018-12-29T03:58:43.711Z,59.09
2018-12-29T03:59:43.716Z,59.19
2018-12-29T04:00:43.728Z,59.09
2018-12-29T04:01:43.733Z,59.19
2018-12-29T04:02:43.739Z,58.91
2018-12-29T04:03:43.747Z,58.62
2018-12-29T04:04:43.753Z,58.72
2018-12-29T04:05:43.760Z,58.91
2018-12-29T04:06:43.768Z,58.72
2018-12-29T04:07:43.775Z,59.00
2018-12-29T04:08:43.781Z,58.91
2018-12-29T04:09:43.788Z,58.81
2018-12-29T04:10:43.795Z,58.62
2018-12-29T04:11:43.805Z,57.96
2018-12-29T04:12:43.809Z,57.87
2018-12-29T04:13:43.817Z,57.96
2018-12-29T04:14:43.828Z,58.06
2018-12-29T04:15:43.834Z,58.25
2018-12-29T04:16:43.841Z,58.15
2018-12-29T04:17:43.847Z,58.06
2018-12-29T04:18:43.855Z,58.25
2018-12-29T04:19:43.863Z,57.96
2018-12-29T04:20:43.871Z,58.44
2018-12-29T04:21:43.874Z,58.91
2018-12-29T04:22:43.884Z,59.38
2018-12-29T04:23:43.889Z,59.28
2018-12-29T04:24:43.896Z,59.47
2018-12-29T04:25:43.904Z,59.66
2018-12-29T04:26:43.912Z,59.95
2018-12-29T04:27:43.917Z,59.95
2018-12-29T04:28:43.925Z,60.42
2018-12-29T04:29:43.999Z,60.04
2018-12-29T04:30:43.942Z,59.66
2018-12-29T04:31:43.946Z,59.66
2018-12-29T04:32:43.953Z,60.33
2018-12-29T04:33:43.960Z,60.23
2018-12-29T04:34:43.967Z,60.14
2018-12-29T04:35:43.974Z,60.04
2018-12-29T04:36:43.983Z,60.04
2018-12-29T04:37:43.990Z,60.42
2018-12-29T04:38:43.996Z,59.57
2018-12-29T04:39:44.003Z,59.38
2018-12-29T04:40:44.010Z,60.14
2018-12-29T04:41:44.018Z,60.42
2018-12-29T04:42:44.023Z,60.33
2018-12-29T04:43:44.031Z,60.23
2018-12-29T04:44:44.039Z,60.89
2018-12-29T04:45:44.046Z,61.18
2018-12-29T04:46:44.052Z,60.99
2018-12-29T04:47:44.059Z,60.99
2018-12-29T04:48:44.068Z,60.70
2018-12-29T04:49:44.075Z,60.52
2018-12-29T04:50:44.080Z,60.52
2018-12-29T04:51:44.089Z,60.52
2018-12-29T04:52:44.096Z,60.52
2018-12-29T04:53:44.108Z,59.85
2018-12-29T04:54:44.113Z,60.23
2018-12-29T04:55:44.118Z,59.76
2018-12-29T04:56:44.124Z,60.04
2018-12-29T04:57:44.134Z,59.85
2018-12-29T04:58:44.139Z,59.66
2018-12-29T04:59:44.147Z,59.00
2018-12-29T05:00:44.153Z,59.28
2018-12-29T05:01:44.162Z,59.09
2018-12-29T05:02:44.176Z,59.47
2018-12-29T05:03:44.179Z,59.66
2018-12-29T05:04:44.184Z,59.47
2018-12-29T05:05:44.201Z,59.76
2018-12-29T05:06:44.199Z,59.95
2018-12-29T05:07:44.204Z,59.47
2018-12-29T05:08:44.212Z,60.14
2018-12-29T05:09:44.222Z,59.57
2018-12-29T05:10:44.228Z,59.47
2018-12-29T05:11:44.234Z,59.85
2018-12-29T05:12:44.238Z,59.09
2018-12-29T05:13:44.245Z,58.72
2018-12-29T05:14:44.251Z,58.44
2018-12-29T05:15:44.262Z,58.53
2018-12-29T05:16:44.267Z,58.44
2018-12-29T05:17:44.273Z,58.91
2018-12-29T05:18:44.280Z,59.00
2018-12-29T05:19:44.287Z,58.53
2018-12-29T05:20:44.296Z,58.25
2018-12-29T05:21:44.305Z,58.25
2018-12-29T05:22:44.312Z,57.96
2018-12-29T05:23:44.316Z,57.87
2018-12-29T05:24:44.326Z,57.96
2018-12-29T05:25:44.335Z,58.06
2018-12-29T05:26:44.337Z,58.53
2018-12-29T05:27:44.346Z,57.87
2018-12-29T05:28:44.354Z,57.77
2018-12-29T05:29:44.365Z,57.30
2018-12-29T05:30:44.370Z,57.39
2018-12-29T05:31:44.371Z,57.20
2018-12-29T05:32:44.379Z,57.30
2018-12-29T05:33:44.388Z,57.30
2018-12-29T05:34:44.395Z,57.77
2018-12-29T05:35:44.399Z,57.30
2018-12-29T05:36:44.406Z,56.63
2018-12-29T05:37:44.415Z,56.54
2018-12-29T05:38:44.419Z,56.73
2018-12-29T05:39:44.429Z,56.82
2018-12-29T05:40:44.436Z,56.73
2018-12-29T05:41:44.444Z,57.39
2018-12-29T05:42:44.448Z,57.01
2018-12-29T05:43:44.456Z,57.01
2018-12-29T05:44:44.464Z,57.30
2018-12-29T05:45:44.472Z,57.87
2018-12-29T05:46:44.480Z,58.25
2018-12-29T05:47:44.486Z,58.15
2018-12-29T05:48:44.492Z,57.96
2018-12-29T05:49:44.499Z,58.15
2018-12-29T05:50:44.507Z,58.15
2018-12-29T05:51:44.581Z,58.06
2018-12-29T05:52:44.521Z,57.96
2018-12-29T05:53:44.529Z,58.34
2018-12-29T05:54:44.534Z,58.44
2018-12-29T05:55:44.540Z,59.00
2018-12-29T05:56:44.549Z,58.72
2018-12-29T05:57:44.555Z,59.47
2018-12-29T05:58:44.562Z,59.28
2018-12-29T05:59:44.572Z,59.38
2018-12-29T06:00:44.576Z,59.28
2018-12-29T06:01:44.582Z,59.28
2018-12-29T06:02:44.590Z,59.19
2018-12-29T06:03:44.597Z,59.38
2018-12-29T06:04:44.604Z,59.09
2018-12-29T06:05:44.609Z,59.19
2018-12-29T06:06:44.619Z,59.09
2018-12-29T06:07:44.624Z,59.00
2018-12-29T06:08:44.633Z,57.87
2018-12-29T06:09:44.638Z,57.87
2018-12-29T06:10:44.646Z,57.96
2018-12-29T06:11:44.652Z,57.58
2018-12-29T06:12:45.399Z,57.01
2018-12-29T06:13:44.668Z,56.63
2018-12-29T06:14:44.673Z,56.54
2018-12-29T06:15:44.683Z,56.73
2018-12-29T06:16:44.687Z,56.63
2018-12-29T06:17:44.695Z,57.49
2018-12-29T06:18:44.700Z,57.77
2018-12-29T06:19:44.708Z,57.96
2018-12-29T06:20:44.714Z,58.62
2018-12-29T06:21:44.723Z,58.91
2018-12-29T06:22:44.729Z,58.91
2018-12-29T06:23:44.735Z,59.00
2018-12-29T06:24:44.744Z,58.44
2018-12-29T06:25:44.750Z,57.96
2018-12-29T06:26:44.757Z,57.77
2018-12-29T06:27:44.763Z,57.30
2018-12-29T06:28:44.771Z,57.20
2018-12-29T06:29:44.777Z,57.30
2018-12-29T06:30:44.784Z,56.92
2018-12-29T06:31:44.792Z,57.11
2018-12-29T06:32:44.798Z,57.30
2018-12-29T06:33:44.805Z,57.30
2018-12-29T06:34:44.813Z,57.58
2018-12-29T06:35:44.823Z,57.87
2018-12-29T06:36:44.825Z,57.49
2018-12-29T06:37:44.833Z,57.96
2018-12-29T06:38:44.841Z,57.87
2018-12-29T06:39:44.846Z,58.62
2018-12-29T06:40:44.853Z,59.28
2018-12-29T06:41:44.861Z,59.09
2018-12-29T06:42:44.868Z,59.00
2018-12-29T06:43:44.873Z,59.38
2018-12-29T06:44:44.881Z,59.28
2018-12-29T06:45:44.888Z,58.91
2018-12-29T06:46:44.898Z,59.19
2018-12-29T06:47:44.902Z,59.28
2018-12-29T06:48:44.910Z,58.91
2018-12-29T06:49:44.915Z,59.19
2018-12-29T06:50:44.920Z,59.09
2018-12-29T06:51:44.930Z,59.57
2018-12-29T06:52:44.949Z,59.38
2018-12-29T06:53:44.944Z,59.47
2018-12-29T06:54:44.950Z,59.47
2018-12-29T06:55:44.956Z,59.00
2018-12-29T06:56:44.964Z,59.00
2018-12-29T06:57:44.969Z,59.28
2018-12-29T06:58:44.977Z,58.91
2018-12-29T06:59:44.984Z,59.19
2018-12-29T07:00:44.992Z,58.81
2018-12-29T07:01:44.997Z,59.38
2018-12-29T07:02:45.007Z,58.81
2018-12-29T07:03:46.688Z,58.91
2018-12-29T07:04:45.019Z,58.81
2018-12-29T07:05:45.026Z,59.19
2018-12-29T07:06:45.032Z,59.00
2018-12-29T07:07:45.039Z,58.91
2018-12-29T07:08:45.048Z,59.00
2018-12-29T07:09:45.053Z,59.38
2018-12-29T07:10:45.057Z,59.19
2018-12-29T07:11:45.065Z,58.91
2018-12-29T07:12:45.071Z,59.28
2018-12-29T07:13:45.081Z,59.00
2018-12-29T07:14:45.087Z,58.62
2018-12-29T07:15:45.091Z,59.19
2018-12-29T07:16:45.100Z,58.62
2018-12-29T07:17:45.106Z,58.81
2018-12-29T07:18:45.114Z,58.91
2018-12-29T07:19:45.119Z,59.00
2018-12-29T07:20:45.127Z,58.81
2018-12-29T07:21:45.133Z,58.25
2018-12-29T07:22:45.141Z,57.68
2018-12-29T07:23:45.921Z,57.77
2018-12-29T07:24:45.154Z,57.68
2018-12-29T07:25:45.161Z,57.49
2018-12-29T07:26:45.166Z,57.39
2018-12-29T07:27:45.175Z,57.87
2018-12-29T07:28:45.183Z,58.25
2018-12-29T07:29:45.192Z,57.96
2018-12-29T07:30:45.195Z,58.62
2018-12-29T07:31:45.218Z,58.81
2018-12-29T07:32:45.209Z,58.72
2018-12-29T07:33:45.219Z,57.96
2018-12-29T07:34:45.221Z,57.39
2018-12-29T07:35:45.235Z,56.35
2018-12-29T07:36:45.237Z,56.07
2018-12-29T07:37:45.264Z,55.41
2018-12-29T07:38:45.251Z,53.80
2018-12-29T07:39:45.253Z,53.33
2018-12-29T07:40:45.273Z,52.67
2018-12-29T07:41:45.271Z,52.10
2018-12-29T07:42:45.276Z,51.81
2018-12-29T07:43:45.282Z,51.15
2018-12-29T07:44:45.290Z,51.09
2018-12-29T07:45:45.297Z,51.43
2018-12-29T07:46:49.637Z,51.62
2018-12-29T07:47:45.308Z,52.22
2018-12-29T07:48:45.316Z,52.00
2018-12-29T07:49:45.324Z,52.19
2018-12-29T07:50:45.331Z,51.34
2018-12-29T07:51:45.336Z,51.34
2018-12-29T07:52:45.344Z,51.53
2018-12-29T07:53:45.354Z,52.38
2018-12-29T07:54:45.358Z,52.00
2018-12-29T07:55:45.362Z,52.48
2018-12-29T07:56:45.369Z,52.57
2018-12-29T07:57:45.379Z,53.33
2018-12-29T07:58:45.383Z,54.27
2018-12-29T07:59:45.391Z,53.99
2018-12-29T08:00:45.399Z,53.89
2018-12-29T08:01:45.407Z,53.80
2018-12-29T08:02:45.411Z,53.89
2018-12-29T08:03:45.419Z,54.27
2018-12-29T08:04:45.430Z,53.99
2018-12-29T08:05:45.436Z,53.89
2018-12-29T08:06:45.439Z,53.61
2018-12-29T08:07:45.446Z,53.89
2018-12-29T08:08:45.452Z,53.80
2018-12-29T08:09:45.460Z,54.46
2018-12-29T08:10:45.467Z,54.46
2018-12-29T08:11:45.471Z,54.30
2018-12-29T08:12:45.481Z,53.89
2018-12-29T08:13:45.487Z,53.17
2018-12-29T08:14:45.492Z,53.05
2018-12-29T08:15:45.500Z,52.57
2018-12-29T08:16:45.507Z,52.10
2018-12-29T08:17:45.514Z,51.75
2018-12-29T08:18:45.522Z,51.34
2018-12-29T08:19:45.529Z,52.38
2018-12-29T08:20:45.535Z,52.57
2018-12-29T08:21:45.541Z,52.41
2018-12-29T08:22:45.551Z,53.05
2018-12-29T08:23:45.557Z,53.80
2018-12-29T08:24:45.563Z,54.27
2018-12-29T08:25:45.571Z,53.99
2018-12-29T08:26:45.574Z,54.30
2018-12-29T08:27:45.585Z,53.89
2018-12-29T08:28:45.589Z,53.74
2018-12-29T08:29:45.601Z,53.74
2018-12-29T08:30:45.606Z,53.83
2018-12-29T08:31:45.611Z,53.55
2018-12-29T08:32:45.688Z,53.26
2018-12-29T08:33:45.625Z,53.45
2018-12-29T08:34:45.633Z,53.83
2018-12-29T08:35:45.642Z,53.74
2018-12-29T08:36:45.645Z,54.30
2018-12-29T08:37:45.652Z,54.30
2018-12-29T08:38:45.657Z,54.21
2018-12-29T08:39:45.666Z,53.83
2018-12-29T08:40:45.672Z,53.45
2018-12-29T08:41:45.679Z,52.12
2018-12-29T08:42:45.694Z,50.71
2018-12-29T08:43:45.693Z,50.33
2018-12-29T08:44:45.705Z,50.71
2018-12-29T08:45:45.710Z,50.90
2018-12-29T08:46:45.713Z,51.30
2018-12-29T08:47:45.722Z,51.96
2018-12-29T08:48:45.732Z,51.39
2018-12-29T08:49:45.737Z,50.45
2018-12-29T08:50:45.745Z,50.82
2018-12-29T08:51:45.751Z,51.70
2018-12-29T08:52:45.762Z,51.23
2018-12-29T08:53:45.769Z,50.47
2018-12-29T08:54:45.777Z,50.19
2018-12-29T08:55:45.786Z,48.77
2018-12-29T08:56:45.794Z,48.20
2018-12-29T08:57:45.805Z,47.63
2018-12-29T08:58:45.813Z,47.47
2018-12-29T08:59:45.818Z,48.32
2018-12-29T09:00:45.828Z,49.65
2018-12-29T09:01:45.837Z,47.18
2018-12-29T09:02:45.846Z,45.86
2018-12-29T09:03:45.854Z,46.73
2018-12-29T09:04:47.031Z,47.02
2018-12-29T09:05:45.874Z,45.97
2018-12-29T09:06:45.880Z,45.21
2018-12-29T09:07:45.891Z,45.31
2018-12-29T09:08:45.903Z,43.91
2018-12-29T09:09:45.910Z,44.10
2018-12-29T09:10:45.919Z,42.86
2018-12-29T09:11:45.927Z,43.05
2018-12-29T09:12:45.945Z,42.30
2018-12-29T09:13:45.947Z,41.63
2018-12-29T09:14:45.956Z,42.39
2018-12-29T09:15:45.966Z,42.77
2018-12-29T09:16:45.978Z,43.53
2018-12-29T09:17:45.990Z,43.84
2018-12-29T09:18:49.687Z,42.70
2018-12-29T09:19:46.005Z,42.32
2018-12-29T09:20:46.747Z,40.89
2018-12-29T09:21:46.024Z,40.69
2018-12-29T09:22:46.033Z,40.33
2018-12-29T09:23:46.043Z,39.54
2018-12-29T09:24:46.052Z,40.21
2018-12-29T09:25:46.063Z,40.12
2018-12-29T09:26:46.072Z,40.61
2018-12-29T09:27:46.081Z,41.18
2018-12-29T09:28:46.092Z,41.85
2018-12-29T09:29:46.114Z,41.37
2018-12-29T09:30:46.111Z,40.89
2018-12-29T09:31:46.121Z,39.78
2018-12-29T09:32:46.130Z,36.82
2018-12-29T09:33:46.141Z,36.63
2018-12-29T09:34:46.148Z,36.93
2018-12-29T09:35:46.159Z,36.05
2018-12-29T09:36:46.222Z,35.96
2018-12-29T09:37:46.185Z,37.29
2018-12-29T09:38:46.192Z,38.92
2018-12-29T09:39:46.200Z,38.45
2018-12-29T09:40:46.211Z,36.05
2018-12-29T09:41:46.220Z,36.24
2018-12-29T09:42:46.229Z,36.34
2018-12-29T09:43:46.239Z,38.81
2018-12-29T09:44:46.250Z,40.33
2018-12-29T09:45:46.259Z,37.86
2018-12-29T09:46:46.269Z,37.88
2018-12-29T09:47:46.278Z,38.92
2018-12-29T09:48:46.290Z,39.18
2018-12-29T09:49:46.300Z,37.67
2018-12-29T09:50:46.309Z,36.82
2018-12-29T09:51:46.321Z,37.29
2018-12-29T09:52:46.332Z,37.86
2018-12-29T09:53:46.341Z,38.05
2018-12-29T09:54:46.350Z,39.01
2018-12-29T09:55:46.362Z,37.90
2018-12-29T09:56:46.375Z,36.57
2018-12-29T09:57:46.383Z,36.00
2018-12-29T09:58:46.394Z,36.38
2018-12-29T09:59:46.403Z,36.46
2018-12-29T10:00:46.415Z,37.88
2018-12-29T10:01:46.427Z,39.21
2018-12-29T10:02:46.435Z,39.40
2018-12-29T10:03:46.448Z,39.01
2018-12-29T10:04:46.459Z,38.64
2018-12-29T10:05:46.467Z,39.70
2018-12-29T10:06:46.479Z,39.61
2018-12-29T10:07:46.492Z,38.28
2018-12-29T10:08:46.500Z,36.00
2018-12-29T10:09:46.512Z,33.62
2018-12-29T10:10:46.522Z,35.24
2018-12-29T10:11:46.533Z,33.81
2018-12-29T10:12:46.544Z,33.72
2018-12-29T10:13:46.556Z,33.24
2018-12-29T10:14:46.569Z,34.95
2018-12-29T10:15:46.578Z,34.69
2018-12-29T10:16:46.590Z,32.50
2018-12-29T10:17:46.601Z,32.59
2018-12-29T10:18:46.614Z,33.18
2018-12-29T10:19:46.626Z,32.90
2018-12-29T10:20:46.635Z,32.90
2018-12-29T10:21:46.649Z,33.83
2018-12-29T10:22:46.664Z,32.59
2018-12-29T10:23:46.674Z,32.21
2018-12-29T10:24:46.685Z,33.17
2018-12-29T10:25:46.695Z,34.78
2018-12-29T10:26:46.707Z,36.11
2018-12-29T10:27:46.717Z,36.22
2018-12-29T10:28:46.731Z,36.81
2018-12-29T10:29:46.746Z,36.35
2018-12-29T10:30:46.756Z,34.66
2018-12-29T10:31:46.768Z,33.99
2018-12-29T10:32:46.781Z,32.35
2018-12-29T10:33:46.792Z,32.55
2018-12-29T10:34:46.805Z,33.96
2018-12-29T10:35:46.818Z,31.66
2018-12-29T10:36:46.831Z,33.75
2018-12-29T10:37:46.846Z,36.04
2018-12-29T10:38:46.855Z,36.22
2018-12-29T10:39:46.871Z,37.19
2018-12-29T10:40:46.882Z,37.74
2018-12-29T10:41:46.894Z,36.70
2018-12-29T10:42:46.906Z,36.89
2018-12-29T10:43:46.921Z,36.70
2018-12-29T10:44:46.933Z,36.60
2018-12-29T10:45:46.946Z,36.79
2018-12-29T10:46:46.959Z,36.13
2018-12-29T10:47:46.973Z,34.80
2018-12-29T10:48:46.986Z,33.94
2018-12-29T10:49:46.998Z,34.91
2018-12-29T10:50:47.010Z,35.60
2018-12-29T10:51:47.030Z,34.07
2018-12-29T10:52:47.040Z,33.97
2018-12-29T10:53:47.053Z,35.96
2018-12-29T10:54:47.064Z,37.38
2018-12-29T10:55:47.078Z,35.65
2018-12-29T10:56:47.090Z,36.04
2018-12-29T10:57:47.105Z,36.96
2018-12-29T10:58:47.121Z,36.68
2018-12-29T10:59:47.130Z,36.87
2018-12-29T11:00:47.146Z,37.82
2018-12-29T11:01:47.160Z,36.89
2018-12-29T11:02:47.171Z,36.32
2018-12-29T11:03:47.186Z,36.91
2018-12-29T11:04:47.200Z,36.89
2018-12-29T11:05:47.212Z,35.48
2018-12-29T11:06:47.223Z,37.86
2018-12-29T11:07:47.314Z,37.12
2018-12-29T11:08:47.260Z,35.00
2018-12-29T11:09:47.267Z,35.75
2018-12-29T11:10:47.280Z,35.46
2018-12-29T11:11:47.292Z,35.06
2018-12-29T11:12:47.309Z,35.54
2018-12-29T11:13:47.321Z,37.55
2018-12-29T11:14:47.331Z,39.55
2018-12-29T11:15:47.347Z,37.48
2018-12-29T11:16:47.358Z,37.76
2018-12-29T11:17:47.376Z,36.24
2018-12-29T11:18:48.416Z,35.58
2018-12-29T11:19:47.404Z,36.13
2018-12-29T11:20:47.419Z,35.65
2018-12-29T11:21:47.429Z,36.22
2018-12-29T11:22:47.441Z,38.24
2018-12-29T11:23:47.460Z,36.81
2018-12-29T11:24:47.471Z,35.86
2018-12-29T11:25:47.482Z,35.58
2018-12-29T11:26:47.498Z,35.96
2018-12-29T11:27:47.511Z,36.72
2018-12-29T11:28:47.526Z,36.43
2018-12-29T11:29:47.540Z,35.78
2018-12-29T11:30:47.760Z,35.69
2018-12-29T11:31:47.569Z,35.78
2018-12-29T11:32:47.580Z,35.88
2018-12-29T11:33:47.595Z,35.19
2018-12-29T11:34:47.608Z,34.91
2018-12-29T11:35:47.622Z,35.67
2018-12-29T11:36:47.637Z,35.65
2018-12-29T11:37:47.653Z,36.13
2018-12-29T11:38:47.664Z,36.79
2018-12-29T11:39:47.678Z,38.51
2018-12-29T11:40:47.693Z,38.53
2018-12-29T11:41:47.710Z,38.14
2018-12-29T11:42:47.750Z,38.70
2018-12-29T11:43:47.737Z,38.43
2018-12-29T11:44:47.749Z,39.09
2018-12-29T11:45:47.764Z,39.26
2018-12-29T11:46:47.791Z,39.65
2018-12-29T11:47:50.033Z,39.26
2018-12-29T11:48:47.825Z,39.45
2018-12-29T11:49:47.822Z,40.41
2018-12-29T11:50:47.837Z,39.67
2018-12-29T11:51:47.850Z,40.62
2018-12-29T11:52:47.866Z,41.57
2018-12-29T11:53:47.879Z,42.52
2018-12-29T11:54:47.893Z,42.64
2018-12-29T11:55:47.907Z,37.88
2018-12-29T11:56:47.921Z,40.35
2018-12-29T11:57:47.938Z,40.26
2018-12-29T11:58:47.949Z,39.51
2018-12-29T11:59:47.962Z,38.17
2018-12-29T12:00:47.978Z,37.78
2018-12-29T12:01:47.994Z,39.09
2018-12-29T12:02:48.007Z,40.05
2018-12-29T12:03:48.022Z,41.69
2018-12-29T12:04:48.037Z,40.43
2018-12-29T12:05:48.051Z,41.47
2018-12-29T12:06:48.065Z,42.25
2018-12-29T12:07:48.078Z,42.28
2018-12-29T12:08:48.096Z,39.80
2018-12-29T12:09:48.111Z,36.77
2018-12-29T12:10:48.124Z,38.01
2018-12-29T12:11:48.139Z,39.53
2018-12-29T12:12:48.160Z,37.90
2018-12-29T12:13:48.173Z,38.95
2018-12-29T12:14:48.187Z,39.51
2018-12-29T12:15:48.197Z,39.90
2018-12-29T12:16:48.214Z,40.64
2018-12-29T12:17:48.240Z,41.30
2018-12-29T12:18:48.253Z,42.35
2018-12-29T12:19:48.265Z,41.40
2018-12-29T12:20:48.274Z,40.81
2018-12-29T12:21:48.289Z,41.30
2018-12-29T12:22:48.304Z,40.64
2018-12-29T12:23:48.320Z,39.78
2018-12-29T12:24:48.335Z,39.50
2018-12-29T12:25:48.348Z,39.69
2018-12-29T12:26:48.366Z,41.30
2018-12-29T12:27:48.378Z,40.85
2018-12-29T12:28:48.394Z,39.51
2018-12-29T12:29:48.412Z,39.14
2018-12-29T12:30:48.424Z,39.51
2018-12-29T12:31:48.439Z,40.28
2018-12-29T12:32:48.453Z,38.83
2018-12-29T12:33:48.470Z,39.59
2018-12-29T12:34:48.484Z,40.71
2018-12-29T12:35:48.500Z,41.26
2018-12-29T12:36:48.516Z,40.71
2018-12-29T12:37:48.534Z,40.33
2018-12-29T12:38:48.544Z,40.90
2018-12-29T12:39:48.560Z,42.14
2018-12-29T12:40:48.577Z,42.04
2018-12-29T12:41:48.592Z,43.28
2018-12-29T12:42:48.606Z,43.19
2018-12-29T12:43:48.623Z,44.16
2018-12-29T12:44:48.639Z,42.25
2018-12-29T12:45:48.650Z,41.23
2018-12-29T12:46:48.664Z,39.78
2018-12-29T12:47:48.680Z,40.35
2018-12-29T12:48:48.696Z,41.95
2018-12-29T12:49:48.710Z,41.09
2018-12-29T12:50:48.727Z,42.71
2018-12-29T12:51:48.743Z,42.61
2018-12-29T12:52:48.756Z,41.66